createdAt,value
2022-09-18T00:01:35.195Z,1.50
2022-09-18T00:04:05.158Z,2.70
2022-09-18T00:06:35.053Z,1.80
2022-09-18T00:09:05.810Z,2.00
2022-09-18T00:11:37.897Z,1.40
2022-09-18T00:14:10.885Z,2.57
2022-09-18T00:16:39.544Z,1.73
2022-09-18T00:19:07.578Z,1.67
2022-09-18T00:21:37.282Z,2.30
2022-09-18T00:24:06.670Z,1.97
2022-09-18T00:26:35.453Z,1.90
2022-09-18T00:29:05.585Z,1.90
2022-09-18T00:31:36.156Z,1.90
2022-09-18T00:34:06.053Z,1.90
2022-09-18T00:36:35.184Z,1.87
2022-09-18T00:39:03.666Z,2.10
2022-09-18T00:41:33.861Z,1.50
2022-09-18T00:44:32.382Z,2.40
2022-09-18T00:47:07.879Z,1.70
2022-09-18T00:49:37.946Z,2.13
2022-09-18T00:52:06.275Z,1.77
2022-09-18T00:54:37.318Z,1.87
2022-09-18T00:57:08.852Z,1.83
2022-09-18T00:59:38.896Z,2.00
2022-09-18T01:02:07.353Z,2.27
2022-09-18T01:04:35.249Z,2.10
2022-09-18T01:07:11.466Z,2.37
2022-09-18T01:09:48.223Z,2.47
2022-09-18T01:12:28.794Z,2.30
2022-09-18T01:15:04.828Z,2.40
2022-09-18T01:17:40.004Z,2.20
2022-09-18T01:20:28.055Z,1.60
2022-09-18T01:23:14.927Z,1.93
2022-09-18T01:25:57.027Z,2.20
2022-09-18T01:28:32.847Z,1.80
2022-09-18T01:31:06.836Z,1.60
2022-09-18T01:33:43.080Z,1.70
2022-09-18T01:36:16.380Z,2.60
2022-09-18T01:38:50.215Z,1.70
2022-09-18T01:41:24.681Z,2.00
2022-09-18T01:43:59.781Z,1.70
2022-09-18T01:46:27.878Z,1.70
2022-09-18T01:49:00.092Z,1.90
2022-09-18T01:51:40.699Z,1.80
2022-09-18T01:54:15.581Z,1.70
2022-09-18T01:56:47.147Z,1.60
2022-09-18T01:59:22.897Z,1.50
2022-09-18T02:02:03.921Z,1.70
2022-09-18T02:04:39.697Z,1.60
2022-09-18T02:07:19.331Z,1.97
2022-09-18T02:09:48.388Z,1.90
2022-09-18T02:12:20.568Z,2.30
2022-09-18T02:14:56.494Z,2.07
2022-09-18T02:17:50.813Z,1.90
2022-09-18T02:20:22.016Z,1.70
2022-09-18T02:22:57.047Z,1.70
2022-09-18T02:25:28.471Z,1.80
2022-09-18T02:27:58.006Z,1.37
2022-09-18T02:30:28.848Z,2.20
2022-09-18T02:32:58.696Z,1.73
2022-09-18T02:35:37.502Z,1.77
2022-09-18T02:38:16.295Z,1.40
2022-09-18T02:40:55.945Z,1.60
2022-09-18T02:43:38.174Z,1.73
2022-09-18T02:46:18.287Z,1.40
2022-09-18T02:48:53.025Z,1.80
2022-09-18T02:51:31.766Z,1.60
2022-09-18T02:54:05.138Z,1.33
2022-09-18T02:56:39.535Z,1.30
2022-09-18T02:59:12.907Z,1.57
2022-09-18T03:01:45.604Z,1.70
2022-09-18T03:04:16.801Z,1.40
2022-09-18T03:06:57.358Z,1.67
2022-09-18T03:09:26.345Z,1.40
2022-09-18T03:11:55.825Z,1.23
2022-09-18T03:14:23.842Z,1.40
2022-09-18T03:16:53.011Z,1.77
2022-09-18T03:19:20.900Z,1.73
2022-09-18T03:21:51.040Z,1.40
2022-09-18T03:24:19.859Z,1.50
2022-09-18T03:26:49.582Z,1.43
2022-09-18T03:29:17.709Z,1.50
2022-09-18T03:31:45.770Z,1.67
2022-09-18T03:34:15.103Z,1.60
2022-09-18T03:36:47.074Z,1.80
2022-09-18T03:39:16.466Z,1.40
2022-09-18T03:41:45.241Z,1.40
2022-09-18T03:44:13.529Z,1.30
2022-09-18T03:46:43.336Z,1.50
2022-09-18T03:49:11.499Z,1.30
2022-09-18T03:51:42.949Z,1.67
2022-09-18T03:54:10.837Z,1.40
2022-09-18T03:57:05.097Z,1.50
2022-09-18T03:59:42.092Z,1.40
2022-09-18T04:02:27.174Z,1.43
2022-09-18T04:05:15.324Z,1.30
2022-09-18T04:08:05.141Z,1.47
2022-09-18T04:10:54.354Z,1.60
2022-09-18T04:13:22.230Z,1.10
2022-09-18T04:15:50.803Z,1.57
2022-09-18T04:18:20.774Z,1.10
2022-09-18T04:20:48.796Z,1.17
2022-09-18T04:23:18.469Z,1.60
2022-09-18T04:25:46.893Z,1.47
2022-09-18T04:28:14.763Z,1.37
2022-09-18T04:30:47.617Z,1.40
2022-09-18T04:33:16.145Z,1.20
2022-09-18T04:35:44.485Z,1.20
2022-09-18T04:38:12.618Z,1.30
2022-09-18T04:40:42.517Z,1.20
2022-09-18T04:43:11.595Z,2.30
2022-09-18T04:45:40.985Z,1.57
2022-09-18T04:48:08.838Z,1.10
2022-09-18T04:50:37.073Z,1.17
2022-09-18T04:53:16.608Z,1.03
2022-09-18T04:55:48.876Z,1.33
2022-09-18T04:58:18.761Z,1.20
2022-09-18T05:00:51.318Z,1.20
2022-09-18T05:03:22.418Z,1.13
2022-09-18T05:05:54.963Z,1.37
2022-09-18T05:08:23.405Z,1.27
2022-09-18T05:10:53.107Z,1.13
2022-09-18T05:13:23.978Z,1.27
2022-09-18T05:16:09.162Z,1.90
2022-09-18T05:18:37.387Z,1.40
2022-09-18T05:21:06.989Z,1.30
2022-09-18T05:23:35.689Z,1.03
2022-09-18T05:26:05.027Z,1.03
2022-09-18T05:28:33.655Z,1.03
2022-09-18T05:31:05.003Z,1.30
2022-09-18T05:33:41.158Z,1.10
2022-09-18T05:36:09.397Z,1.13
2022-09-18T05:38:39.836Z,1.63
2022-09-18T05:41:11.025Z,0.90
2022-09-18T05:43:39.119Z,1.10
2022-09-18T05:46:10.762Z,1.10
2022-09-18T05:48:49.433Z,1.10
2022-09-18T05:51:17.417Z,1.10
2022-09-18T05:53:48.304Z,1.10
2022-09-18T05:56:37.796Z,0.97
2022-09-18T05:59:05.631Z,1.00
2022-09-18T06:01:33.866Z,1.00
2022-09-18T06:04:18.298Z,1.40
2022-09-18T06:06:56.779Z,1.60
2022-09-18T06:09:24.666Z,1.03
2022-09-18T06:11:53.830Z,1.17
2022-09-18T06:14:23.100Z,1.10
2022-09-18T06:16:51.132Z,1.40
2022-09-18T06:19:19.035Z,1.07
2022-09-18T06:21:49.227Z,1.20
2022-09-18T06:24:19.658Z,1.63
2022-09-18T06:27:09.179Z,0.90
2022-09-18T06:29:36.937Z,1.20
2022-09-18T06:32:10.674Z,1.20
2022-09-18T06:34:40.310Z,1.20
2022-09-18T06:37:12.914Z,1.60
2022-09-18T06:39:41.037Z,0.90
2022-09-18T06:42:11.647Z,1.37
2022-09-18T06:44:58.023Z,1.03
2022-09-18T06:47:28.396Z,1.30
2022-09-18T06:49:56.798Z,1.33
2022-09-18T06:52:24.746Z,1.20
2022-09-18T06:54:56.065Z,1.27
2022-09-18T06:57:33.119Z,1.10
2022-09-18T07:00:05.014Z,1.43
2022-09-18T07:02:38.096Z,1.10
2022-09-18T07:05:27.605Z,1.00
2022-09-18T07:07:55.504Z,1.43
2022-09-18T07:10:24.872Z,1.50
2022-09-18T07:12:58.055Z,1.40
2022-09-18T07:15:26.881Z,1.20
2022-09-18T07:17:57.007Z,1.00
2022-09-18T07:20:25.229Z,0.87
2022-09-18T07:22:54.128Z,1.20
2022-09-18T07:25:23.505Z,1.10
2022-09-18T07:27:53.771Z,1.40
2022-09-18T07:30:23.666Z,1.43
2022-09-18T07:32:54.279Z,1.00
2022-09-18T07:35:26.739Z,0.90
2022-09-18T07:37:58.966Z,0.93
2022-09-18T07:40:40.236Z,1.00
2022-09-18T07:43:12.144Z,1.07
2022-09-18T07:45:49.025Z,1.00
2022-09-18T07:48:17.398Z,1.30
2022-09-18T07:50:49.164Z,1.13
2022-09-18T07:53:18.696Z,1.00
2022-09-18T07:55:49.677Z,0.80
2022-09-18T07:58:17.610Z,1.43
2022-09-18T08:00:53.143Z,1.00
2022-09-18T08:03:22.866Z,1.10
2022-09-18T08:06:17.674Z,1.20
2022-09-18T08:08:56.035Z,1.00
2022-09-18T08:11:56.465Z,1.60
2022-09-18T08:14:31.172Z,0.93
2022-09-18T08:17:19.899Z,1.33
2022-09-18T08:20:09.068Z,0.90
2022-09-18T08:22:55.185Z,0.80
2022-09-18T08:25:27.355Z,1.00
2022-09-18T08:27:55.684Z,0.80
2022-09-18T08:30:32.992Z,0.80
2022-09-18T08:33:07.266Z,0.80
2022-09-18T08:35:35.474Z,0.70
2022-09-18T08:38:16.529Z,1.00
2022-09-18T08:41:13.755Z,1.03
2022-09-18T08:43:50.181Z,0.70
2022-09-18T08:46:22.555Z,0.80
2022-09-18T08:49:02.554Z,1.00
2022-09-18T08:51:38.754Z,1.10
2022-09-18T08:54:21.370Z,1.20
2022-09-18T08:57:17.924Z,0.90
2022-09-18T09:00:03.516Z,0.87
2022-09-18T09:02:39.395Z,0.80
2022-09-18T09:05:12.408Z,0.80
2022-09-18T09:08:04.395Z,1.10
2022-09-18T09:10:43.802Z,1.03
2022-09-18T09:13:33.848Z,0.97
2022-09-18T09:16:09.232Z,0.80
2022-09-18T09:18:53.451Z,0.90
2022-09-18T09:21:25.628Z,1.33
2022-09-18T09:24:09.091Z,0.90
2022-09-18T09:26:58.025Z,0.90
2022-09-18T09:29:46.780Z,0.80
2022-09-18T09:32:41.367Z,0.73
2022-09-18T09:35:33.625Z,0.90
2022-09-18T09:38:38.366Z,1.00
2022-09-18T09:41:14.508Z,1.00
2022-09-18T09:43:48.482Z,0.90
2022-09-18T09:46:23.044Z,0.93
2022-09-18T09:48:58.040Z,0.83
2022-09-18T09:51:32.100Z,1.20
2022-09-18T09:54:04.022Z,0.83
2022-09-18T09:56:43.994Z,0.90
2022-09-18T09:59:23.534Z,1.37
2022-09-18T10:02:37.443Z,0.90
2022-09-18T10:05:18.235Z,1.00
2022-09-18T10:07:51.030Z,1.00
2022-09-18T10:10:30.856Z,0.90
2022-09-18T10:13:04.671Z,1.20
2022-09-18T10:15:38.698Z,1.37
2022-09-18T10:18:17.602Z,1.20
2022-09-18T10:20:48.170Z,1.20
2022-09-18T10:23:25.734Z,1.13
2022-09-18T10:26:01.792Z,1.17
2022-09-18T10:28:32.958Z,1.10
2022-09-18T10:31:06.439Z,1.03
2022-09-18T10:33:41.602Z,1.40
2022-09-18T10:36:25.851Z,1.23
2022-09-18T10:38:55.321Z,1.40
2022-09-18T10:41:43.139Z,1.20
2022-09-18T10:44:25.445Z,1.63
2022-09-18T10:47:04.842Z,1.30
2022-09-18T10:49:41.761Z,1.13
2022-09-18T10:52:31.352Z,1.10
2022-09-18T10:55:18.448Z,1.50
2022-09-18T10:58:14.742Z,1.20
2022-09-18T11:00:56.351Z,1.30
2022-09-18T11:03:41.582Z,1.00
2022-09-18T11:06:19.480Z,1.20
2022-09-18T11:08:50.356Z,1.10
2022-09-18T11:11:30.633Z,0.93
2022-09-18T11:14:06.744Z,1.77
2022-09-18T11:16:50.806Z,1.03
2022-09-18T11:19:27.598Z,1.47
2022-09-18T11:22:03.368Z,1.00
2022-09-18T11:24:46.617Z,1.63
2022-09-18T11:27:21.222Z,1.10
2022-09-18T11:29:51.409Z,1.20
2022-09-18T11:32:22.065Z,1.10
2022-09-18T11:34:53.938Z,1.40
2022-09-18T11:37:31.888Z,1.30
2022-09-18T11:40:06.021Z,1.10
2022-09-18T11:42:43.091Z,1.40
2022-09-18T11:45:29.609Z,1.30
2022-09-18T11:48:06.739Z,1.20
2022-09-18T11:50:38.478Z,1.10
2022-09-18T11:53:15.992Z,1.10
2022-09-18T11:55:49.675Z,1.10
2022-09-18T11:58:25.052Z,1.00
2022-09-18T12:01:06.181Z,1.00
2022-09-18T12:03:40.581Z,1.00
2022-09-18T12:06:15.348Z,1.30
2022-09-18T12:08:49.821Z,1.27
2022-09-18T12:11:26.177Z,1.13
2022-09-18T12:14:01.514Z,1.20
2022-09-18T12:16:43.991Z,1.00
2022-09-18T12:19:20.807Z,1.00
2022-09-18T12:21:56.975Z,1.17
2022-09-18T12:24:25.584Z,1.10
2022-09-18T12:27:09.088Z,1.17
2022-09-18T12:30:01.783Z,1.10
2022-09-18T12:32:54.421Z,1.10
2022-09-18T12:35:32.129Z,0.90
2022-09-18T12:38:13.226Z,1.00
2022-09-18T12:41:09.033Z,1.10
2022-09-18T12:43:52.664Z,0.90
2022-09-18T12:46:45.423Z,1.07
2022-09-18T12:49:29.448Z,0.97
2022-09-18T12:52:07.649Z,1.27
2022-09-18T12:54:48.940Z,1.20
2022-09-18T12:57:30.648Z,1.07
2022-09-18T13:00:04.805Z,1.33
2022-09-18T13:02:42.254Z,1.63
2022-09-18T13:05:18.064Z,1.33
2022-09-18T13:07:49.705Z,1.13
2022-09-18T13:10:21.753Z,1.10
2022-09-18T13:12:57.245Z,1.27
2022-09-18T13:15:29.300Z,1.40
2022-09-18T13:18:10.686Z,1.70
2022-09-18T13:20:44.200Z,1.23
2022-09-18T13:23:19.015Z,1.20
2022-09-18T13:25:49.365Z,1.17
2022-09-18T13:28:20.808Z,1.70
2022-09-18T13:30:51.951Z,1.20
2022-09-18T13:33:24.520Z,1.30
2022-09-18T13:35:57.616Z,1.20
2022-09-18T13:38:28.153Z,1.27
2022-09-18T13:41:03.791Z,1.33
2022-09-18T13:43:46.444Z,1.37
2022-09-18T13:46:39.403Z,1.17
2022-09-18T13:49:19.862Z,1.47
2022-09-18T13:51:49.054Z,1.47
2022-09-18T13:54:29.171Z,1.30
2022-09-18T13:57:19.740Z,1.33
2022-09-18T13:59:51.324Z,1.50
2022-09-18T14:02:38.109Z,1.30
2022-09-18T14:05:31.205Z,1.57
2022-09-18T14:08:35.985Z,1.20
2022-09-18T14:11:16.389Z,1.30
2022-09-18T14:13:52.389Z,1.67
2022-09-18T14:16:41.290Z,1.43
2022-09-18T14:19:30.885Z,1.37
2022-09-18T14:22:00.607Z,1.60
2022-09-18T14:24:56.196Z,2.27
2022-09-18T14:27:43.792Z,1.27
2022-09-18T14:30:30.903Z,1.57
2022-09-18T14:33:05.373Z,2.17
2022-09-18T14:35:37.965Z,1.30
2022-09-18T14:38:17.924Z,1.27
2022-09-18T14:40:58.543Z,1.27
2022-09-18T14:43:26.882Z,1.47
2022-09-18T14:45:55.762Z,1.50
2022-09-18T14:48:30.111Z,1.20
2022-09-18T14:51:06.116Z,1.40
2022-09-18T14:53:44.278Z,1.50
2022-09-18T14:56:18.299Z,1.30
2022-09-18T14:58:47.780Z,1.30
2022-09-18T15:01:18.238Z,1.63
2022-09-18T15:03:49.899Z,1.53
2022-09-18T15:06:21.075Z,1.40
2022-09-18T15:08:54.258Z,1.47
2022-09-18T15:11:34.713Z,1.40
2022-09-18T15:14:23.850Z,1.63
2022-09-18T15:16:56.167Z,1.20
2022-09-18T15:19:24.209Z,1.50
2022-09-18T15:21:52.671Z,1.67
2022-09-18T15:24:21.017Z,1.43
2022-09-18T15:26:56.106Z,1.40
2022-09-18T15:29:29.179Z,1.53
2022-09-18T15:31:57.654Z,1.50
2022-09-18T15:34:27.705Z,1.40
2022-09-18T15:37:00.599Z,1.40
2022-09-18T15:39:31.631Z,1.70
2022-09-18T15:42:17.412Z,1.53
2022-09-18T15:45:22.771Z,1.60
2022-09-18T15:47:51.159Z,2.10
2022-09-18T15:50:41.632Z,1.83
2022-09-18T15:53:30.613Z,1.77
2022-09-18T15:56:01.867Z,1.40
2022-09-18T15:58:37.170Z,1.33
2022-09-18T16:01:14.909Z,1.50
2022-09-18T16:03:43.441Z,2.00
2022-09-18T16:06:23.124Z,1.70
2022-09-18T16:08:55.013Z,1.30
2022-09-18T16:11:42.664Z,1.40
2022-09-18T16:14:47.267Z,1.60
2022-09-18T16:17:39.015Z,1.50
2022-09-18T16:20:38.847Z,1.47
2022-09-18T16:23:20.815Z,1.37
2022-09-18T16:26:05.863Z,1.53
2022-09-18T16:28:35.947Z,1.60
2022-09-18T16:31:05.592Z,1.80
2022-09-18T16:33:34.884Z,1.77
2022-09-18T16:36:06.559Z,1.53
2022-09-18T16:38:34.941Z,1.80
2022-09-18T16:41:03.420Z,1.20
2022-09-18T16:43:31.419Z,1.80
2022-09-18T16:45:59.185Z,1.97
2022-09-18T16:48:29.296Z,1.60
2022-09-18T16:50:57.129Z,2.13
2022-09-18T16:53:25.127Z,1.53
2022-09-18T16:55:56.672Z,1.50
2022-09-18T16:58:27.794Z,1.50
2022-09-18T17:00:55.845Z,1.70
2022-09-18T17:03:28.409Z,1.90
2022-09-18T17:05:56.338Z,1.30
2022-09-18T17:08:24.352Z,1.57
2022-09-18T17:10:52.219Z,1.50
2022-09-18T17:13:22.700Z,1.50
2022-09-18T17:15:52.826Z,1.53
2022-09-18T17:18:20.785Z,1.47
2022-09-18T17:20:49.913Z,1.77
2022-09-18T17:23:17.969Z,1.73
2022-09-18T17:25:45.893Z,1.90
2022-09-18T17:28:17.619Z,1.67
2022-09-18T17:30:45.814Z,1.40
2022-09-18T17:33:17.482Z,1.63
2022-09-18T17:35:47.683Z,1.60
2022-09-18T17:38:17.308Z,1.80
2022-09-18T17:40:56.685Z,1.90
2022-09-18T17:43:25.500Z,2.00
2022-09-18T17:45:57.388Z,2.07
2022-09-18T17:48:29.331Z,2.20
2022-09-18T17:50:58.667Z,2.50
2022-09-18T17:53:28.821Z,2.00
2022-09-18T17:55:59.967Z,1.70
2022-09-18T17:58:28.826Z,1.40
2022-09-18T18:00:57.228Z,2.13
2022-09-18T18:03:26.694Z,1.43
2022-09-18T18:05:57.605Z,1.73
2022-09-18T18:08:27.560Z,1.43
2022-09-18T18:10:55.957Z,1.37
2022-09-18T18:13:24.311Z,1.50
2022-09-18T18:15:53.734Z,1.10
2022-09-18T18:18:21.635Z,1.40
2022-09-18T18:20:54.052Z,1.23
2022-09-18T18:23:22.005Z,1.97
2022-09-18T18:25:51.240Z,1.30
2022-09-18T18:28:23.296Z,1.60
2022-09-18T18:31:02.662Z,1.57
2022-09-18T18:33:31.961Z,1.50
2022-09-18T18:36:08.344Z,1.70
2022-09-18T18:38:36.369Z,1.47
2022-09-18T18:41:06.667Z,1.20
2022-09-18T18:43:40.135Z,1.40
2022-09-18T18:46:09.319Z,1.70
2022-09-18T18:48:40.303Z,1.00
2022-09-18T18:51:10.429Z,1.13
2022-09-18T18:53:39.000Z,1.10
2022-09-18T18:56:09.872Z,0.87
2022-09-18T18:58:40.500Z,1.00
2022-09-18T19:01:10.697Z,2.63
2022-09-18T19:03:42.973Z,1.50
2022-09-18T19:06:11.134Z,1.20
2022-09-18T19:08:41.984Z,1.00
2022-09-18T19:11:11.959Z,1.37
2022-09-18T19:13:43.059Z,1.50
2022-09-18T19:16:11.707Z,1.00
2022-09-18T19:18:40.096Z,0.97
2022-09-18T19:21:08.299Z,1.23
2022-09-18T19:23:36.923Z,1.00
2022-09-18T19:26:05.000Z,1.00
2022-09-18T19:28:34.273Z,0.87
2022-09-18T19:31:04.994Z,0.93
2022-09-18T19:33:34.000Z,1.07
2022-09-18T19:36:06.062Z,1.23
2022-09-18T19:38:36.843Z,1.10
2022-09-18T19:41:10.227Z,0.90
2022-09-18T19:43:40.012Z,1.20
2022-09-18T19:46:11.187Z,1.30
2022-09-18T19:48:39.481Z,1.20
2022-09-18T19:51:08.935Z,1.70
2022-09-18T19:53:37.503Z,1.37
2022-09-18T19:56:22.627Z,1.50
2022-09-18T19:58:58.414Z,1.10
2022-09-18T20:01:26.315Z,0.90
2022-09-18T20:03:56.530Z,1.20
2022-09-18T20:06:24.449Z,1.00
2022-09-18T20:08:52.859Z,1.27
2022-09-18T20:11:20.588Z,1.17
2022-09-18T20:13:50.922Z,0.93
2022-09-18T20:16:21.084Z,0.97
2022-09-18T20:18:51.227Z,1.20
2022-09-18T20:21:20.338Z,1.30
2022-09-18T20:23:48.603Z,1.70
2022-09-18T20:26:19.380Z,1.13
2022-09-18T20:28:49.546Z,1.03
2022-09-18T20:31:17.975Z,1.00
2022-09-18T20:33:47.501Z,1.50
2022-09-18T20:36:15.735Z,1.27
2022-09-18T20:38:44.438Z,1.00
2022-09-18T20:41:14.801Z,1.20
2022-09-18T20:43:44.104Z,1.10
2022-09-18T20:46:15.675Z,1.20
2022-09-18T20:48:46.358Z,1.20
2022-09-18T20:51:18.242Z,1.20
2022-09-18T20:53:47.076Z,1.50
2022-09-18T20:56:16.306Z,1.13
2022-09-18T20:58:44.226Z,1.20
2022-09-18T21:01:14.371Z,1.30
2022-09-18T21:03:44.823Z,1.20
2022-09-18T21:06:22.889Z,2.17
2022-09-18T21:08:55.202Z,1.10
2022-09-18T21:11:25.039Z,1.07
2022-09-18T21:13:54.423Z,1.10
2022-09-18T21:16:23.139Z,1.00
2022-09-18T21:18:53.294Z,0.80
2022-09-18T21:21:22.698Z,1.13
2022-09-18T21:23:58.446Z,1.30
2022-09-18T21:26:31.512Z,1.10
2022-09-18T21:29:01.196Z,1.00
2022-09-18T21:31:30.321Z,1.13
2022-09-18T21:33:59.110Z,1.70
2022-09-18T21:36:28.872Z,1.30
2022-09-18T21:38:56.819Z,1.40
2022-09-18T21:41:26.143Z,1.10
2022-09-18T21:43:57.390Z,0.90
2022-09-18T21:46:25.285Z,1.20
2022-09-18T21:48:56.709Z,1.00
2022-09-18T21:51:24.493Z,1.27
2022-09-18T21:53:53.704Z,1.30
2022-09-18T21:56:21.736Z,0.80
2022-09-18T21:58:50.216Z,1.20
2022-09-18T22:01:20.264Z,1.10
2022-09-18T22:03:53.421Z,0.80
2022-09-18T22:06:25.875Z,0.90
2022-09-18T22:08:56.980Z,0.90
2022-09-18T22:11:26.597Z,1.00
2022-09-18T22:13:55.458Z,1.00
2022-09-18T22:16:24.210Z,0.97
2022-09-18T22:18:53.060Z,1.37
2022-09-18T22:21:23.518Z,1.37
2022-09-18T22:23:53.292Z,1.10
2022-09-18T22:26:23.450Z,0.97
2022-09-18T22:28:53.329Z,0.93
2022-09-18T22:31:22.291Z,0.60
2022-09-18T22:33:54.802Z,1.00
2022-09-18T22:36:22.986Z,1.30
2022-09-18T22:38:50.774Z,0.90
2022-09-18T22:41:19.467Z,0.90
2022-09-18T22:43:48.746Z,1.13
2022-09-18T22:46:17.971Z,0.80
2022-09-18T22:48:45.880Z,0.90
2022-09-18T22:51:16.273Z,0.90
2022-09-18T22:53:50.841Z,1.13
2022-09-18T22:56:20.457Z,0.90
2022-09-18T22:58:51.019Z,0.97
2022-09-18T23:01:21.809Z,1.00
2022-09-18T23:03:53.464Z,0.90
2022-09-18T23:06:25.382Z,0.93
2022-09-18T23:08:53.646Z,0.87
2022-09-18T23:11:23.370Z,1.00
2022-09-18T23:13:55.033Z,1.00
2022-09-18T23:16:24.428Z,1.00
2022-09-18T23:18:54.232Z,0.83
2022-09-18T23:21:23.096Z,1.00
2022-09-18T23:23:51.348Z,0.90
2022-09-18T23:26:23.164Z,0.90
2022-09-18T23:28:53.914Z,0.80
2022-09-18T23:31:25.572Z,0.80
2022-09-18T23:33:55.051Z,1.00
2022-09-18T23:36:27.664Z,1.00
2022-09-18T23:38:56.942Z,0.83
2022-09-18T23:41:25.961Z,1.50
2022-09-18T23:43:55.430Z,0.83
2022-09-18T23:46:24.618Z,1.07
2022-09-18T23:48:55.678Z,1.03
2022-09-18T23:51:24.877Z,1.30
2022-09-18T23:53:53.511Z,0.90
2022-09-18T23:56:23.480Z,1.00
2022-09-18T23:58:55.623Z,0.93
